Forney's Hourly Summary for Sunday, May 13, 2018
Hour Temp
(f)
RH
(%)
Solar Rad.
(MJ/m2)
Rainfall
(in)
Wind
(mph)
5/13/2018 12:00 AM 75 68 0 0 1.11
5/13/2018 1:00 AM 74 72 0 0 1.23
5/13/2018 2:00 AM 73 77 0 0 1.23
5/13/2018 3:00 AM 73 80 0 0 1.36
5/13/2018 4:00 AM 72 83 0 0 2.93
5/13/2018 5:00 AM 71 85 0 0 3.66
5/13/2018 6:00 AM 70 88 0 0 3.24
5/13/2018 7:00 AM 70 93 0.02 0 2.07
5/13/2018 8:00 AM 70 91 0.31 0 1.77
5/13/2018 9:00 AM 73 78 0.62 0 4.42
5/13/2018 10:00 AM 76 70 0.9 0 4.63
5/13/2018 11:00 AM 79 62 2.4 0 5.82
5/13/2018 12:00 PM 80 59 1.82 0 5.84
5/13/2018 1:00 PM 83 57 2.26 0 5.63
5/13/2018 2:00 PM 84 51 3.14 0 6.87
5/13/2018 3:00 PM 85 51 2.66 0 6.37
5/13/2018 4:00 PM 87 48 2.34 0 5.94
5/13/2018 5:00 PM 88 46 2.04 0 5.32
5/13/2018 6:00 PM 87 48 1.28 0 5.41
5/13/2018 7:00 PM 87 48 0.81 0 4.65
5/13/2018 8:00 PM 84 51 0.14 0 1.94
5/13/2018 9:00 PM 81 58 0.01 0 1.03
5/13/2018 10:00 PM 79 63 0 0 0.94
5/13/2018 11:00 PM 78 66 0 0 0.95
Data Summary 78 66 20.75 0.00 3.52